Time;durP1;ratioP1;P1;durP2;ratioP2;P2;SDS_P1;SDS_P2;PMS_P1;PMS_P2;Temp;Humidity;BMP_temperature;BMP_pressure;BME280_temperature;BME280_humidity;BME280_pressure;Samples;Min_cycle;Max_cycle;Signal;HPM_P1;HPM_P2
2022/06/24 00:00:32;;;;;;;6.33;2.50;;;21.80;99.20;;;;;;5055168;28;20456;-56
2022/06/24 00:02:58;;;;;;;3.00;2.80;;;21.90;99.30;;;;;;5055163;28;20448;-56
2022/06/24 00:05:29;;;;;;;2.60;2.50;;;21.90;98.80;;;;;;5053866;28;20452;-56
2022/06/24 00:07:55;;;;;;;2.90;2.70;;;21.90;99.00;;;;;;5055238;28;20452;-57
2022/06/24 00:10:23;;;;;;;4.13;2.50;;;22.00;98.70;;;;;;5055037;28;20575;-56
2022/06/24 00:12:52;;;;;;;3.73;2.70;;;22.10;99.00;;;;;;5055022;28;20539;-56
2022/06/24 00:15:25;;;;;;;3.87;2.70;;;22.20;99.00;;;;;;5054922;28;20824;-55
2022/06/24 00:17:52;;;;;;;3.60;2.93;;;22.20;98.90;;;;;;5054823;28;20773;-56
2022/06/24 00:20:20;;;;;;;3.23;2.80;;;22.20;98.80;;;;;;5054947;28;20454;-56
2022/06/24 00:22:48;;;;;;;3.10;2.80;;;22.10;98.80;;;;;;5055081;28;20444;-55
2022/06/24 00:25:17;;;;;;;2.90;2.70;;;21.90;98.70;;;;;;5054753;28;20807;-56
2022/06/24 00:27:57;;;;;;;4.90;2.77;;;21.90;98.80;;;;;;5054704;28;20859;-56
2022/06/24 00:30:25;;;;;;;3.20;2.93;;;21.70;99.10;;;;;;5054777;28;20488;-56
2022/06/24 00:32:52;;;;;;;3.20;2.90;;;21.50;99.60;;;;;;5054670;28;20448;-56
2022/06/24 00:35:19;;;;;;;3.27;3.07;;;21.40;99.90;;;;;;5054600;28;20499;-56
2022/06/24 00:37:47;;;;;;;3.37;3.07;;;21.30;99.90;;;;;;5054524;28;20537;-56
2022/06/24 00:40:25;;;;;;;2.93;2.63;;;21.20;99.90;;;;;;5054310;28;20952;-56
2022/06/24 00:42:51;;;;;;;3.37;3.13;;;21.20;99.90;;;;;;5054291;28;20522;-55
2022/06/24 00:45:25;;;;;;;3.60;3.30;;;21.20;99.90;;;;;;5054522;28;20452;-56
2022/06/24 00:47:54;;;;;;;4.50;3.00;;;21.20;99.90;;;;;;5054449;28;20463;-55
2022/06/24 00:50:23;;;;;;;3.70;3.37;;;21.30;99.90;;;;;;5054249;28;20831;-56
2022/06/24 00:52:52;;;;;;;3.00;2.80;;;21.30;99.90;;;;;;5054224;28;20448;-56
2022/06/24 00:55:21;;;;;;;3.23;2.93;;;21.30;99.90;;;;;;5054093;28;20547;-56
2022/06/24 00:57:48;;;;;;;3.50;3.20;;;21.30;99.90;;;;;;5054216;28;20480;-57
2022/06/24 01:00:16;;;;;;;2.97;2.87;;;21.30;99.90;;;;;;5054040;28;20530;-56
2022/06/24 01:02:42;;;;;;;4.87;3.97;;;21.20;99.90;;;;;;5054669;28;20448;-56
2022/06/24 01:05:11;;;;;;;4.07;3.40;;;21.20;99.90;;;;;;5054005;28;20971;-56
2022/06/24 01:07:38;;;;;;;6.27;3.10;;;21.30;99.90;;;;;;5053838;28;20808;-56
2022/06/24 01:10:05;;;;;;;3.40;3.10;;;21.30;99.90;;;;;;5053992;28;20702;-56
2022/06/24 01:12:32;;;;;;;3.60;3.33;;;21.40;99.90;;;;;;5053981;28;20448;-56
2022/06/24 01:14:59;;;;;;;3.40;3.10;;;21.50;99.90;;;;;;5054119;28;20450;-56
2022/06/24 01:17:25;;;;;;;4.30;3.50;;;21.50;99.90;;;;;;5053799;28;20451;-56
2022/06/24 01:19:52;;;;;;;3.17;2.97;;;21.50;99.90;;;;;;5053692;28;20448;-56
2022/06/24 01:22:21;;;;;;;3.50;3.20;;;21.60;99.90;;;;;;5053529;28;20535;-56
2022/06/24 01:24:47;;;;;;;3.17;2.97;;;21.60;99.90;;;;;;5053980;28;20543;-55
2022/06/24 01:27:14;;;;;;;3.43;3.23;;;21.70;99.90;;;;;;5053686;28;20476;-56
2022/06/24 01:29:40;;;;;;;3.50;3.20;;;21.70;99.90;;;;;;5053883;28;20483;-56
2022/06/24 01:32:08;;;;;;;3.23;3.03;;;21.70;99.90;;;;;;5053377;28;20575;-57
2022/06/24 01:34:35;;;;;;;4.30;3.70;;;21.70;99.90;;;;;;5053362;28;20537;-58
2022/06/24 01:37:02;;;;;;;3.73;3.43;;;21.70;99.90;;;;;;5053322;28;20512;-57
2022/06/24 01:39:30;;;;;;;3.17;2.97;;;21.80;99.90;;;;;;5053494;28;20532;-56
2022/06/24 01:41:57;;;;;;;3.50;3.20;;;21.80;99.90;;;;;;5053404;28;20514;-56
2022/06/24 01:44:25;;;;;;;3.50;3.20;;;21.80;99.90;;;;;;5053174;28;20473;-56
2022/06/24 01:46:52;;;;;;;3.50;3.20;;;21.80;99.90;;;;;;5053323;28;20452;-56
2022/06/24 01:49:19;;;;;;;4.13;3.77;;;21.70;99.90;;;;;;5053091;28;20460;-56
2022/06/24 01:51:49;;;;;;;4.07;3.67;;;21.70;99.90;;;;;;5053216;28;20490;-57
2022/06/24 01:54:16;;;;;;;3.50;3.30;;;21.70;99.90;;;;;;5053431;28;20449;-57
2022/06/24 01:56:44;;;;;;;4.70;3.17;;;21.70;99.90;;;;;;5053222;28;20455;-56
2022/06/24 01:59:10;;;;;;;4.73;3.70;;;21.70;99.90;;;;;;5053128;28;20512;-57
2022/06/24 02:01:37;;;;;;;3.10;2.90;;;21.70;99.90;;;;;;5052942;28;20448;-56
2022/06/24 02:04:03;;;;;;;3.57;3.37;;;21.70;99.90;;;;;;5052955;28;20448;-56
2022/06/24 02:06:30;;;;;;;4.33;3.70;;;21.60;99.90;;;;;;5053134;28;20885;-57
2022/06/24 02:08:56;;;;;;;4.13;3.30;;;21.60;99.90;;;;;;5053221;28;20448;-56
2022/06/24 02:14:10;;;;;;;3.87;3.57;;;21.50;99.90;;;;;;5053213;28;20428;-57
2022/06/24 02:16:38;;;;;;;3.60;3.40;;;21.40;99.90;;;;;;5052859;28;20451;-56
2022/06/24 02:19:05;;;;;;;4.63;4.23;;;21.50;99.90;;;;;;5053236;28;20538;-55
2022/06/24 02:21:32;;;;;;;3.40;3.20;;;21.40;99.90;;;;;;5052953;28;20786;-56
2022/06/24 02:23:59;;;;;;;4.37;3.50;;;21.40;99.90;;;;;;5052813;28;20531;-56
2022/06/24 02:26:26;;;;;;;3.80;3.53;;;21.40;99.90;;;;;;5052897;28;20441;-56
2022/06/24 02:28:53;;;;;;;4.27;3.40;;;21.30;99.90;;;;;;5055201;28;20447;-56
2022/06/24 02:31:21;;;;;;;3.73;3.53;;;21.30;99.90;;;;;;5057162;28;20488;-56
2022/06/24 02:33:47;;;;;;;3.80;3.60;;;21.20;99.90;;;;;;5056967;28;20531;-56
2022/06/24 02:36:14;;;;;;;3.37;3.17;;;21.20;99.90;;;;;;5056744;28;21027;-56
2022/06/24 02:38:41;;;;;;;3.57;3.37;;;21.20;99.90;;;;;;5056779;28;20444;-56
2022/06/24 02:41:07;;;;;;;4.50;4.20;;;21.20;99.90;;;;;;5056685;28;20816;-56
2022/06/24 02:43:36;;;;;;;3.90;3.60;;;21.30;99.90;;;;;;5056439;28;20554;-56
2022/06/24 02:46:05;;;;;;;3.53;3.27;;;21.30;99.90;;;;;;5056723;28;20448;-56
2022/06/24 02:48:36;;;;;;;3.80;3.50;;;21.30;99.90;;;;;;5056662;28;20444;-56
2022/06/24 02:51:03;;;;;;;4.23;3.60;;;21.40;99.90;;;;;;5056528;28;20482;-56
2022/06/24 02:53:31;;;;;;;3.83;3.53;;;21.40;99.90;;;;;;5056459;28;20454;-56
2022/06/24 02:55:59;;;;;;;5.70;3.90;;;21.30;99.90;;;;;;5056359;28;20480;-56
2022/06/24 02:58:26;;;;;;;3.60;3.20;;;21.20;99.90;;;;;;5056481;28;20449;-56
2022/06/24 03:00:53;;;;;;;3.93;3.63;;;21.20;99.90;;;;;;5056419;28;20811;-56
2022/06/24 03:03:21;;;;;;;3.47;3.20;;;21.10;99.90;;;;;;5056301;28;20454;-56
2022/06/24 03:05:50;;;;;;;4.77;4.33;;;21.10;99.90;;;;;;5056244;28;20448;-56
2022/06/24 03:08:18;;;;;;;3.97;3.67;;;21.10;99.90;;;;;;5056142;28;20448;-55
2022/06/24 03:10:45;;;;;;;4.60;4.20;;;20.90;99.90;;;;;;5055994;28;20480;-56
2022/06/24 03:13:12;;;;;;;4.70;3.80;;;20.80;99.90;;;;;;5055982;28;20969;-56
2022/06/24 03:15:40;;;;;;;5.23;3.70;;;20.60;99.90;;;;;;5056136;28;20448;-56
2022/06/24 03:18:07;;;;;;;4.23;3.83;;;20.50;99.90;;;;;;5056026;28;20535;-55
2022/06/24 03:20:33;;;;;;;4.10;3.80;;;20.40;99.90;;;;;;5056246;28;20446;-56
2022/06/24 03:23:01;;;;;;;4.90;4.43;;;20.40;99.90;;;;;;5055855;28;20530;-56
2022/06/24 03:25:28;;;;;;;4.90;4.60;;;20.40;99.90;;;;;;5055848;28;20450;-56
2022/06/24 03:27:54;;;;;;;4.30;4.03;;;20.30;99.90;;;;;;5055871;28;20535;-56
2022/06/24 03:30:21;;;;;;;5.00;4.27;;;20.20;99.90;;;;;;5055704;28;21014;-56
2022/06/24 03:32:48;;;;;;;5.60;4.20;;;20.10;99.90;;;;;;5055696;28;20444;-55
2022/06/24 03:35:14;;;;;;;4.73;4.43;;;20.10;99.90;;;;;;5055809;28;20487;-56
2022/06/24 03:37:41;;;;;;;4.30;3.47;;;20.10;99.90;;;;;;5056179;28;20531;-56
2022/06/24 03:40:10;;;;;;;4.47;4.07;;;20.10;99.90;;;;;;5055743;28;20448;-56
2022/06/24 03:42:36;;;;;;;6.50;4.30;;;20.10;99.90;;;;;;5055537;28;20448;-54
2022/06/24 03:45:03;;;;;;;4.20;3.80;;;20.10;99.90;;;;;;5055576;28;20448;-56
2022/06/24 03:47:30;;;;;;;5.90;4.40;;;20.10;99.90;;;;;;5055469;28;20879;-56
2022/06/24 03:49:57;;;;;;;4.33;4.03;;;20.20;99.90;;;;;;5055274;28;20432;-56
2022/06/24 03:52:24;;;;;;;4.93;4.50;;;20.20;99.90;;;;;;5055464;28;20541;-56
2022/06/24 03:54:50;;;;;;;4.83;4.30;;;20.30;99.90;;;;;;5055678;28;20455;-56
2022/06/24 03:57:18;;;;;;;4.47;4.13;;;20.30;99.90;;;;;;5055523;28;20543;-56
2022/06/24 03:59:44;;;;;;;5.47;4.40;;;20.30;99.90;;;;;;5055261;28;20452;-56
2022/06/24 04:02:11;;;;;;;4.73;4.30;;;20.40;99.90;;;;;;5055210;28;20423;-56
2022/06/24 04:04:37;;;;;;;4.50;4.20;;;20.50;99.90;;;;;;5055007;28;20448;-56
2022/06/24 04:07:04;;;;;;;9.10;4.50;;;20.50;99.90;;;;;;5055200;28;20476;-55
2022/06/24 04:09:31;;;;;;;4.77;4.27;;;20.60;99.90;;;;;;5055147;28;20811;-56
2022/06/24 04:11:57;;;;;;;6.87;4.27;;;20.60;99.90;;;;;;5055004;28;20982;-52
2022/06/24 04:17:09;;;;;;;4.20;3.63;;;20.70;99.90;;;;;;5054827;28;20430;-56
2022/06/24 04:19:36;;;;;;;4.53;4.13;;;20.80;99.90;;;;;;5054901;28;20444;-54
2022/06/24 04:22:03;;;;;;;4.23;4.03;;;20.90;99.90;;;;;;5054836;28;20459;-54
2022/06/24 04:24:30;;;;;;;5.63;3.97;;;20.90;99.90;;;;;;5054837;28;20789;-57
2022/06/24 04:26:56;;;;;;;4.20;3.90;;;21.00;99.90;;;;;;5054635;28;20540;-55
2022/06/24 04:29:24;;;;;;;3.83;3.63;;;21.00;99.90;;;;;;5054672;28;20559;-57
2022/06/24 04:31:50;;;;;;;5.30;4.47;;;21.10;99.90;;;;;;5054594;28;20583;-54
2022/06/24 04:34:17;;;;;;;4.67;4.17;;;21.00;99.90;;;;;;5054681;28;20539;-55
2022/06/24 04:36:43;;;;;;;5.10;4.23;;;21.10;99.90;;;;;;5054659;28;20940;-56
2022/06/24 04:39:10;;;;;;;6.20;4.30;;;21.20;99.90;;;;;;5054869;28;20886;-56
2022/06/24 04:41:36;;;;;;;3.80;3.60;;;21.30;99.90;;;;;;5054576;28;20480;-55
2022/06/24 04:44:03;;;;;;;3.80;3.50;;;21.20;99.90;;;;;;5054207;28;20563;-56
2022/06/24 04:46:31;;;;;;;4.17;3.97;;;21.30;99.90;;;;;;5054299;28;20535;-56
2022/06/24 04:48:57;;;;;;;3.73;3.47;;;21.40;99.90;;;;;;5054684;28;20453;-56
2022/06/24 04:51:27;;;;;;;8.10;7.60;;;21.50;99.90;;;;;;5053679;28;20472;-56
2022/06/24 04:53:54;;;;;;;4.67;4.27;;;21.70;99.90;;;;;;5054143;28;20927;-56
2022/06/24 04:56:20;;;;;;;4.30;3.90;;;21.70;99.90;;;;;;5053953;28;20539;-56
2022/06/24 04:58:47;;;;;;;3.93;3.63;;;21.90;99.90;;;;;;5053955;28;20545;-56
2022/06/24 05:01:13;;;;;;;5.67;3.87;;;21.90;99.90;;;;;;5053989;28;20490;-56
2022/06/24 05:03:42;;;;;;;4.60;3.60;;;22.00;99.90;;;;;;5054097;28;20796;-56
2022/06/24 05:06:09;;;;;;;7.00;3.40;;;22.10;99.90;;;;;;5053970;28;20539;-56
2022/06/24 05:08:35;;;;;;;4.00;3.40;;;22.30;99.90;;;;;;5053691;28;20611;-56
2022/06/24 05:11:02;;;;;;;4.40;3.60;;;22.30;99.90;;;;;;5053712;28;20444;-55
2022/06/24 05:13:28;;;;;;;11.80;3.43;;;22.40;99.90;;;;;;5053681;28;20490;-56
2022/06/24 05:15:56;;;;;;;6.50;3.77;;;22.60;99.90;;;;;;5054125;28;20459;-56
2022/06/24 05:18:23;;;;;;;3.33;3.00;;;22.70;99.90;;;;;;5053836;28;20452;-56
2022/06/24 05:20:50;;;;;;;4.23;3.30;;;22.90;99.90;;;;;;5053496;28;21027;-56
2022/06/24 05:23:17;;;;;;;3.10;2.90;;;23.10;99.90;;;;;;5053561;28;20539;-56
2022/06/24 05:25:43;;;;;;;4.77;3.30;;;23.30;99.90;;;;;;5053531;28;20570;-56
2022/06/24 05:28:10;;;;;;;3.33;3.03;;;23.50;99.90;;;;;;5053315;28;20454;-56
2022/06/24 05:30:36;;;;;;;5.37;3.00;;;23.60;99.90;;;;;;5053654;28;20452;-56
2022/06/24 05:33:03;;;;;;;4.07;3.10;;;23.70;99.90;;;;;;5053255;28;21074;-57
2022/06/24 05:35:29;;;;;;;3.67;2.57;;;23.90;99.90;;;;;;5053447;28;20463;-57
2022/06/24 05:37:57;;;;;;;3.60;3.30;;;24.20;99.90;;;;;;5053498;28;20947;-57
2022/06/24 05:40:24;;;;;;;2.80;2.60;;;24.30;99.90;;;;;;5053104;28;20523;-57
2022/06/24 05:42:50;;;;;;;3.13;2.90;;;24.30;99.90;;;;;;5052917;28;20472;-56
2022/06/24 05:45:17;;;;;;;3.30;2.87;;;24.40;99.90;;;;;;5053058;28;21011;-57
2022/06/24 05:47:43;;;;;;;3.30;3.10;;;24.50;99.90;;;;;;5053045;28;20484;-56
2022/06/24 05:50:10;;;;;;;7.00;2.90;;;24.60;99.90;;;;;;5052910;28;20807;-55
2022/06/24 05:55:22;;;;;;;3.70;2.93;;;24.70;99.80;;;;;;5052930;28;20439;-58
2022/06/24 05:57:48;;;;;;;3.97;3.47;;;24.90;99.60;;;;;;5052982;28;20475;-58
2022/06/24 06:00:16;;;;;;;4.07;2.83;;;25.00;98.80;;;;;;5052841;28;20452;-57
2022/06/24 06:02:42;;;;;;;3.07;2.87;;;25.10;98.50;;;;;;5052013;28;20507;-56
2022/06/24 06:05:09;;;;;;;3.67;2.73;;;25.00;98.00;;;;;;5052858;28;20449;-56
2022/06/24 06:07:35;;;;;;;6.23;3.10;;;25.00;98.60;;;;;;5052659;28;20444;-56
2022/06/24 06:10:02;;;;;;;2.77;2.57;;;25.20;98.60;;;;;;5052852;28;20448;-57
2022/06/24 06:12:30;;;;;;;4.90;3.17;;;25.30;98.80;;;;;;5052738;28;20486;-57
2022/06/24 06:14:56;;;;;;;3.93;2.60;;;25.50;98.10;;;;;;5052761;28;20482;-56
2022/06/24 06:17:23;;;;;;;2.83;2.63;;;25.60;97.00;;;;;;5052739;28;20456;-57
2022/06/24 06:19:49;;;;;;;3.03;2.83;;;25.60;97.70;;;;;;5052804;28;20448;-56
2022/06/24 06:22:15;;;;;;;4.50;3.30;;;25.80;97.30;;;;;;5052268;28;20471;-57
2022/06/24 06:24:43;;;;;;;3.97;3.33;;;25.90;96.30;;;;;;5052837;28;20449;-57
2022/06/24 06:27:10;;;;;;;4.20;3.20;;;26.00;96.60;;;;;;5052691;28;20452;-57
2022/06/24 06:29:37;;;;;;;3.20;2.57;;;26.20;96.40;;;;;;5052709;28;20550;-56
2022/06/24 06:32:05;;;;;;;4.67;3.40;;;26.30;95.90;;;;;;5052511;28;20471;-57
2022/06/24 06:34:32;;;;;;;3.73;3.30;;;26.40;96.20;;;;;;5052720;28;20455;-57
2022/06/24 06:36:59;;;;;;;3.60;3.33;;;26.50;95.10;;;;;;5052342;28;20456;-57
2022/06/24 06:39:25;;;;;;;3.47;3.07;;;26.50;94.90;;;;;;5052644;28;20780;-58
2022/06/24 06:41:52;;;;;;;3.27;3.07;;;26.50;94.40;;;;;;5052646;28;20449;-58
2022/06/24 06:44:18;;;;;;;2.70;2.50;;;26.50;94.60;;;;;;5052592;28;20883;-57
2022/06/24 06:46:46;;;;;;;3.33;3.10;;;26.60;94.80;;;;;;5052516;28;20476;-58
2022/06/24 06:49:13;;;;;;;5.60;2.70;;;26.80;94.10;;;;;;5052353;28;20539;-59
2022/06/24 06:51:39;;;;;;;4.07;3.03;;;26.90;93.40;;;;;;5052422;28;20444;-57
2022/06/24 06:54:06;;;;;;;4.83;3.20;;;27.00;94.00;;;;;;5052523;28;20455;-58
2022/06/24 06:56:32;;;;;;;3.47;3.27;;;27.10;93.30;;;;;;5052370;28;20451;-58
2022/06/24 06:58:59;;;;;;;3.10;2.87;;;27.10;92.50;;;;;;5052317;28;20955;-58
2022/06/24 07:01:25;;;;;;;3.13;2.90;;;27.10;92.80;;;;;;5049656;28;20910;-57
2022/06/24 07:03:53;;;;;;;3.60;3.13;;;27.30;92.30;;;;;;5051470;28;20471;-57
2022/06/24 07:06:20;;;;;;;2.90;2.67;;;27.40;91.70;;;;;;5043826;28;20551;-59
2022/06/24 07:08:46;;;;;;;2.93;2.73;;;27.50;91.70;;;;;;5048914;28;20448;-60
2022/06/24 07:11:13;;;;;;;4.37;2.73;;;27.60;91.50;;;;;;5050831;28;20989;-57
2022/06/24 07:13:39;;;;;;;5.43;3.40;;;27.60;90.60;;;;;;5046971;28;20480;-55
2022/06/24 07:16:09;;;;;;;6.80;2.80;;;27.80;91.40;;;;;;5038305;28;20467;-56
2022/06/24 07:18:35;;;;;;;5.67;2.60;;;27.90;89.30;;;;;;5049192;28;20455;-59
2022/06/24 07:21:03;;;;;;;4.13;2.80;;;27.70;88.20;;;;;;5044101;28;20789;-60
2022/06/24 07:23:30;;;;;;;4.80;3.30;;;27.60;87.20;;;;;;5055670;28;20454;-59
2022/06/24 07:25:56;;;;;;;3.83;2.83;;;27.60;88.60;;;;;;5054281;28;20448;-59
2022/06/24 07:28:24;;;;;;;4.87;2.97;;;27.80;87.80;;;;;;5061943;28;20456;-59
2022/06/24 07:30:51;;;;;;;3.00;2.70;;;28.00;86.40;;;;;;5054594;28;20458;-60
2022/06/24 07:33:17;;;;;;;6.03;2.50;;;28.10;84.50;;;;;;5054537;28;20995;-59
2022/06/24 07:35:44;;;;;;;7.90;3.13;;;28.20;85.90;;;;;;5054193;28;20518;-60
2022/06/24 07:38:12;;;;;;;3.00;2.57;;;28.40;86.30;;;;;;5055131;28;20452;-59
2022/06/24 07:40:38;;;;;;;3.43;3.13;;;28.40;85.80;;;;;;5054538;28;20519;-58
2022/06/24 07:43:05;;;;;;;6.97;3.27;;;28.50;84.90;;;;;;5044560;28;20481;-61
2022/06/24 07:45:31;;;;;;;4.17;2.97;;;28.40;84.50;;;;;;5054579;28;20440;-61
2022/06/24 07:47:58;;;;;;;3.40;3.20;;;28.60;86.70;;;;;;5054486;28;20456;-59
2022/06/24 07:50:25;;;;;;;2.87;2.63;;;28.70;86.70;;;;;;5054998;28;20441;-59
2022/06/24 07:52:51;;;;;;;3.07;2.83;;;28.80;86.00;;;;;;5054982;28;20559;-58
2022/06/24 07:58:03;;;;;;;3.17;2.87;;;28.70;83.20;;;;;;5034836;28;20440;-59
2022/06/24 08:00:30;;;;;;;2.93;2.73;;;28.50;83.00;;;;;;5043793;28;20450;-59
2022/06/24 08:02:56;;;;;;;4.80;2.60;;;28.40;82.30;;;;;;5053984;28;20743;-56
2022/06/24 08:05:23;;;;;;;3.27;3.07;;;28.50;81.90;;;;;;5052752;28;20462;-59
2022/06/24 08:07:49;;;;;;;3.37;2.97;;;28.40;83.00;;;;;;5053412;28;20444;-59
2022/06/24 08:10:16;;;;;;;4.63;3.40;;;28.60;85.00;;;;;;5051741;28;20523;-60
2022/06/24 08:12:44;;;;;;;2.80;2.60;;;28.70;82.20;;;;;;5053543;28;20559;-59
2022/06/24 08:15:11;;;;;;;3.13;2.63;;;28.70;81.30;;;;;;5052056;28;20547;-59
2022/06/24 08:17:37;;;;;;;2.40;2.20;;;28.80;82.30;;;;;;5053806;28;20452;-57
2022/06/24 08:20:05;;;;;;;2.60;2.40;;;28.90;78.20;;;;;;5042939;28;20453;-57
2022/06/24 08:22:31;;;;;;;4.43;2.33;;;29.10;79.20;;;;;;5048453;28;20458;-59
2022/06/24 08:24:58;;;;;;;2.93;2.67;;;29.20;78.00;;;;;;5045769;28;20868;-60
2022/06/24 08:27:24;;;;;;;2.70;2.50;;;29.40;79.40;;;;;;5053888;28;20443;-59
2022/06/24 08:29:52;;;;;;;3.87;2.50;;;29.60;77.30;;;;;;5052211;28;20798;-59
2022/06/24 08:32:19;;;;;;;2.70;2.47;;;29.50;76.20;;;;;;5053758;28;20983;-60
2022/06/24 08:34:45;;;;;;;2.70;2.50;;;29.50;76.10;;;;;;5053378;28;20457;-61
2022/06/24 08:37:12;;;;;;;2.87;2.57;;;29.60;76.40;;;;;;5054220;28;20449;-58
2022/06/24 08:39:38;;;;;;;3.37;2.40;;;29.80;76.80;;;;;;5054033;28;20888;-61
2022/06/24 08:42:06;;;;;;;5.67;3.20;;;29.80;72.90;;;;;;5054364;28;20452;-60
2022/06/24 08:44:35;;;;;;;5.50;2.80;;;29.80;74.40;;;;;;5054059;28;20481;-60
2022/06/24 08:47:04;;;;;;;3.00;2.30;;;29.70;72.70;;;;;;5054233;28;20448;-61
2022/06/24 08:49:32;;;;;;;2.80;2.57;;;29.70;74.50;;;;;;5054041;28;20444;-61
2022/06/24 08:52:00;;;;;;;2.70;2.13;;;29.70;74.30;;;;;;5057610;28;20548;-61
2022/06/24 08:54:30;;;;;;;3.33;3.03;;;29.50;74.20;;;;;;5053296;28;20483;-61
2022/06/24 08:56:57;;;;;;;4.33;2.53;;;29.50;73.10;;;;;;5054159;28;20455;-61
2022/06/24 08:59:23;;;;;;;3.27;2.20;;;29.40;73.90;;;;;;5053840;28;20444;-60
2022/06/24 09:01:50;;;;;;;5.83;2.83;;;29.60;76.20;;;;;;5053548;28;20480;-61
2022/06/24 09:04:18;;;;;;;2.40;2.30;;;29.70;75.60;;;;;;5053815;28;20548;-60
2022/06/24 09:06:44;;;;;;;4.70;2.60;;;29.60;72.90;;;;;;5054375;28;20527;-61
2022/06/24 09:09:13;;;;;;;2.70;2.37;;;29.60;71.80;;;;;;5073833;28;20538;-61
2022/06/24 09:11:41;;;;;;;2.20;2.00;;;29.90;69.90;;;;;;5073791;28;20501;-61
2022/06/24 09:14:08;;;;;;;4.27;2.67;;;30.00;70.50;;;;;;5073500;28;20487;-61
2022/06/24 09:16:37;;;;;;;2.80;2.60;;;30.00;68.70;;;;;;5073606;28;20447;-60
2022/06/24 09:19:06;;;;;;;2.77;2.57;;;30.10;69.80;;;;;;5053866;28;20453;-59
2022/06/24 09:21:39;;;;;;;4.07;2.40;;;30.00;67.70;;;;;;5052515;28;20456;-61
2022/06/24 09:24:06;;;;;;;2.83;2.63;;;30.00;70.30;;;;;;5054082;28;20789;-61
2022/06/24 09:26:35;;;;;;;2.10;1.93;;;30.20;70.50;;;;;;5053231;28;20880;-61
2022/06/24 09:29:03;;;;;;;2.43;2.23;;;30.20;70.00;;;;;;5053166;28;20532;-61
2022/06/24 09:31:31;;;;;;;2.60;2.40;;;30.40;71.10;;;;;;5053110;28;20440;-61
2022/06/24 09:34:09;;;;;;;2.70;2.50;;;30.30;69.30;;;;;;5053166;28;20498;-60
2022/06/24 09:36:38;;;;;;;2.30;2.00;;;30.20;68.20;;;;;;5051255;28;21022;-60
2022/06/24 09:39:07;;;;;;;3.30;1.60;;;30.00;65.30;;;;;;5051962;28;20470;-60
2022/06/24 09:41:43;;;;;;;2.30;2.10;;;30.10;66.20;;;;;;5049428;28;20449;-59
2022/06/24 09:44:10;;;;;;;1.97;1.87;;;30.40;66.70;;;;;;5038912;28;20508;-59
2022/06/24 09:46:36;;;;;;;2.30;2.10;;;30.60;68.40;;;;;;5051857;28;20532;-60
2022/06/24 09:49:05;;;;;;;2.10;1.77;;;30.70;65.40;;;;;;5052307;28;20448;-61
2022/06/24 09:51:32;;;;;;;1.60;1.50;;;30.70;66.10;;;;;;5050972;28;20502;-58
2022/06/24 09:54:00;;;;;;;3.53;3.23;;;30.80;62.60;;;;;;5052834;28;20911;-62
2022/06/24 09:56:28;;;;;;;2.20;2.00;;;30.70;59.70;;;;;;5049786;28;20452;-63
2022/06/24 10:01:42;;;;;;;2.43;2.07;;;30.60;63.90;;;;;;5051481;28;20915;-62
2022/06/24 10:04:12;;;;;;;2.37;1.90;;;30.80;65.70;;;;;;5045194;28;20543;-59
2022/06/24 10:06:42;;;;;;;2.30;2.13;;;31.00;63.70;;;;;;5047544;28;20475;-60
2022/06/24 10:09:10;;;;;;;4.30;1.93;;;31.00;63.30;;;;;;5039479;28;20506;-60
2022/06/24 10:11:39;;;;;;;1.90;1.80;;;31.20;64.20;;;;;;5043506;28;20962;-59
2022/06/24 10:14:06;;;;;;;4.00;2.00;;;31.10;63.20;;;;;;5049848;28;20518;-59
2022/06/24 10:16:33;;;;;;;2.10;2.00;;;31.00;63.80;;;;;;5058457;28;20484;-59
2022/06/24 10:19:02;;;;;;;2.73;2.47;;;30.90;64.60;;;;;;5052626;28;20542;-59
2022/06/24 10:21:29;;;;;;;3.10;2.17;;;30.80;67.00;;;;;;5044312;28;20460;-58
2022/06/24 10:23:56;;;;;;;2.37;2.17;;;30.90;65.60;;;;;;5049023;28;20512;-55
2022/06/24 10:26:28;;;;;;;3.87;2.27;;;31.00;66.10;;;;;;5040985;28;20456;-57
2022/06/24 10:29:29;;;;;;;2.50;2.30;;;31.00;66.90;;;;;;5033585;28;21010;-60
2022/06/24 10:32:09;;;;;;;3.60;3.00;;;31.30;68.50;;;;;;5051377;28;20946;-54
2022/06/24 10:34:44;;;;;;;5.13;2.33;;;31.30;65.10;;;;;;5043312;28;20562;-49
2022/06/24 10:37:28;;;;;;;3.90;2.57;;;31.30;65.80;;;;;;5052138;28;20457;-55
2022/06/24 10:39:56;;;;;;;2.43;2.20;;;31.40;67.80;;;;;;5052156;28;20459;-55
2022/06/24 10:42:24;;;;;;;3.53;2.60;;;31.60;65.90;;;;;;5052467;28;20448;-56
2022/06/24 10:44:55;;;;;;;2.23;2.10;;;31.30;66.80;;;;;;5051792;28;20816;-56
2022/06/24 10:47:37;;;;;;;2.57;2.37;;;31.40;67.10;;;;;;5052223;28;20448;-55
2022/06/24 10:50:14;;;;;;;3.33;2.90;;;31.60;66.10;;;;;;5055332;28;20875;-56
2022/06/24 10:52:43;;;;;;;5.90;2.43;;;31.70;64.10;;;;;;5056670;28;20506;-54
2022/06/24 10:55:32;;;;;;;3.67;3.37;;;31.90;67.50;;;;;;5056238;28;20932;-56
2022/06/24 10:58:03;;;;;;;2.70;2.50;;;32.00;66.20;;;;;;5056358;28;21025;-57
2022/06/24 11:00:53;;;;;;;3.43;3.17;;;31.70;64.20;;;;;;5056513;28;20447;-55
2022/06/24 11:03:23;;;;;;;2.60;2.40;;;31.60;63.70;;;;;;5056231;28;20448;-56
2022/06/24 11:05:51;;;;;;;2.73;2.57;;;31.40;64.40;;;;;;5056455;28;20815;-56
2022/06/24 11:08:19;;;;;;;3.60;2.57;;;31.50;64.00;;;;;;5056152;28;20454;-56
2022/06/24 11:10:47;;;;;;;4.40;2.50;;;31.50;66.30;;;;;;5056202;28;20447;-57
2022/06/24 11:13:15;;;;;;;2.70;2.60;;;31.70;67.30;;;;;;5056124;28;20970;-56
2022/06/24 11:15:44;;;;;;;4.30;2.50;;;31.80;64.50;;;;;;5055950;28;20448;-57
2022/06/24 11:18:12;;;;;;;4.83;2.73;;;31.90;64.10;;;;;;5055844;28;20447;-56
2022/06/24 11:20:40;;;;;;;2.60;2.40;;;32.10;62.50;;;;;;5055981;28;20882;-56
2022/06/24 11:23:08;;;;;;;5.60;2.63;;;32.10;62.80;;;;;;5056015;28;20452;-57
2022/06/24 11:25:35;;;;;;;2.80;2.60;;;32.30;61.50;;;;;;5055837;28;20452;-57
2022/06/24 11:28:02;;;;;;;2.60;2.50;;;32.10;61.20;;;;;;5055627;28;20448;-54
2022/06/24 11:30:30;;;;;;;3.13;2.90;;;31.90;62.00;;;;;;5055738;28;20548;-56
2022/06/24 11:32:59;;;;;;;2.87;2.67;;;31.90;61.80;;;;;;5055508;28;20454;-56
2022/06/24 11:35:27;;;;;;;2.50;2.30;;;31.70;59.60;;;;;;5055690;28;20505;-56
2022/06/24 11:37:56;;;;;;;2.40;2.20;;;31.90;61.40;;;;;;5055644;28;20509;-56
2022/06/24 11:40:24;;;;;;;2.83;2.20;;;32.20;61.70;;;;;;5055639;28;20801;-56
2022/06/24 11:42:52;;;;;;;2.80;2.17;;;32.40;60.10;;;;;;5055204;28;20567;-56
2022/06/24 11:45:33;;;;;;;4.10;2.70;;;32.10;58.50;;;;;;5055415;28;20448;-56
2022/06/24 11:47:59;;;;;;;3.03;2.50;;;31.90;58.60;;;;;;5055596;28;20547;-56
2022/06/24 11:50:26;;;;;;;2.63;2.20;;;31.90;59.80;;;;;;5055298;28;20445;-55
2022/06/24 11:52:52;;;;;;;4.43;2.40;;;31.90;59.60;;;;;;5055307;28;20543;-55
2022/06/24 11:55:27;;;;;;;5.53;2.57;;;32.10;59.60;;;;;;5055159;28;20484;-56
2022/06/24 11:57:55;;;;;;;3.30;2.47;;;32.10;59.70;;;;;;5055352;28;20454;-56
2022/06/24 12:00:22;;;;;;;4.90;2.90;;;32.00;61.70;;;;;;5053706;28;20933;-56
2022/06/24 12:02:51;;;;;;;4.03;2.70;;;32.00;60.80;;;;;;5055141;28;20777;-56
2022/06/24 12:05:19;;;;;;;3.70;3.40;;;31.90;60.30;;;;;;5054969;28;21003;-55
2022/06/24 12:07:46;;;;;;;2.73;2.53;;;32.00;61.90;;;;;;5055136;28;20800;-56
2022/06/24 12:10:13;;;;;;;6.50;2.73;;;32.50;63.10;;;;;;5054865;28;20471;-56
2022/06/24 12:12:55;;;;;;;2.70;2.50;;;32.70;61.80;;;;;;5054852;28;20448;-57
2022/06/24 12:15:23;;;;;;;6.53;2.80;;;32.60;61.50;;;;;;5054923;28;20572;-54
2022/06/24 12:17:53;;;;;;;3.10;2.90;;;32.80;59.90;;;;;;5054821;28;20851;-57
2022/06/24 12:20:23;;;;;;;2.57;2.37;;;32.80;58.50;;;;;;5054794;28;20448;-56
2022/06/24 12:23:18;;;;;;;2.90;2.70;;;32.70;58.00;;;;;;5054600;28;20448;-54
2022/06/24 12:25:47;;;;;;;3.47;2.60;;;32.70;58.20;;;;;;5054765;28;20539;-55
2022/06/24 12:28:18;;;;;;;2.70;2.50;;;32.50;59.40;;;;;;5054728;28;20452;-57
2022/06/24 12:30:59;;;;;;;2.70;2.50;;;32.30;58.80;;;;;;5054650;28;20452;-55
2022/06/24 12:33:28;;;;;;;4.33;2.47;;;32.40;58.60;;;;;;5054318;28;20452;-55
2022/06/24 12:36:10;;;;;;;3.00;2.00;;;32.20;57.20;;;;;;5054783;28;20539;-53
2022/06/24 12:38:39;;;;;;;2.20;2.10;;;32.40;57.00;;;;;;5054526;28;20877;-56
2022/06/24 12:41:07;;;;;;;2.90;1.97;;;32.70;56.20;;;;;;5054442;28;20811;-56
2022/06/24 12:43:34;;;;;;;4.90;2.10;;;32.90;55.10;;;;;;5054167;28;20477;-55
2022/06/24 12:46:03;;;;;;;5.73;2.50;;;32.60;55.80;;;;;;5054589;28;20755;-55
2022/06/24 12:51:25;;;;;;;6.60;2.13;;;31.90;55.30;;;;;;5054303;28;20494;-56
2022/06/24 12:53:52;;;;;;;4.03;2.43;;;32.10;56.70;;;;;;5053925;28;20476;-55
2022/06/24 12:56:19;;;;;;;5.80;2.07;;;32.30;55.70;;;;;;5054166;28;20851;-56
2022/06/24 12:58:46;;;;;;;2.70;2.37;;;32.20;55.10;;;;;;5054158;28;20456;-55
2022/06/24 13:01:13;;;;;;;8.30;2.87;;;32.30;55.20;;;;;;5053934;28;20962;-56
2022/06/24 13:03:41;;;;;;;4.10;2.03;;;32.70;55.50;;;;;;5053863;28;20444;-55
2022/06/24 13:06:07;;;;;;;3.93;2.23;;;32.90;54.40;;;;;;5053999;28;20445;-56
2022/06/24 13:08:34;;;;;;;5.13;1.93;;;33.20;54.60;;;;;;5053761;28;20524;-54